Time;durP1;ratioP1;P1;durP2;ratioP2;P2;SDS_P1;SDS_P2;PMS_P1;PMS_P2;Temp;Humidity;BMP_temperature;BMP_pressure;BME280_temperature;BME280_humidity;BME280_pressure;Samples;Min_cycle;Max_cycle;Signal;HPM_P1;HPM_P2
2023/01/30 00:02:16;;;;;;;52.47;23.23;;;;;;;0.96;83.06;100410.16;10452724;28;20064;-77
2023/01/30 00:07:20;;;;;;;42.60;19.90;;;;;;;1.10;82.20;100431.66;10452236;28;20123;-78
2023/01/30 00:12:23;;;;;;;55.72;25.48;;;;;;;1.21;82.54;100449.72;10450590;28;20081;-77
2023/01/30 00:17:26;;;;;;;57.40;22.65;;;;;;;1.11;82.58;100457.16;10456840;28;20096;-77
2023/01/30 00:22:30;;;;;;;48.08;19.08;;;;;;;1.28;82.29;100438.81;10456226;28;20053;-76
2023/01/30 00:27:33;;;;;;;46.95;24.48;;;;;;;1.45;81.21;100422.25;10476573;28;20037;-77
2023/01/30 00:32:37;;;;;;;61.17;29.02;;;;;;;1.39;82.17;100413.69;10465355;28;20073;-78
2023/01/30 00:37:42;;;;;;;49.00;22.42;;;;;;;1.17;83.46;100405.78;10433609;28;20072;-77
2023/01/30 00:48:05;;;;;;;48.72;21.98;;;;;;;1.18;83.38;100367.78;10439155;28;20111;-76
2023/01/30 00:53:11;;;;;;;47.70;24.52;;;;;;;1.38;83.25;100378.41;10443087;28;20064;-77
2023/01/30 00:58:13;;;;;;;44.28;20.65;;;;;;;1.18;84.29;100360.75;10437319;28;20385;-77
2023/01/30 01:03:18;;;;;;;50.22;25.30;;;;;;;1.10;85.01;100357.56;10441292;28;20431;-77
2023/01/30 01:08:22;;;;;;;59.83;26.10;;;;;;;1.35;84.63;100335.34;10437419;28;20103;-76
2023/01/30 01:13:25;;;;;;;53.03;23.25;;;;;;;1.43;84.41;100349.09;10439942;28;20102;-78
2023/01/30 01:18:28;;;;;;;42.08;18.95;;;;;;;1.03;87.65;100316.41;10452610;28;20439;-77
2023/01/30 01:23:32;;;;;;;46.90;20.98;;;;;;;1.33;87.58;100314.22;10443658;28;20079;-78
2023/01/30 01:28:36;;;;;;;49.53;23.35;;;;;;;1.18;89.02;100313.13;10430892;28;20041;-77
2023/01/30 01:33:39;;;;;;;42.25;20.15;;;;;;;1.03;89.03;100298.75;10451610;28;20060;-77
2023/01/30 01:38:43;;;;;;;69.90;31.17;;;;;;;0.83;90.98;100282.88;10456911;28;20561;-77
2023/01/30 01:44:01;;;;;;;41.63;17.73;;;;;;;1.06;91.17;100245.69;10442988;28;20045;-76
2023/01/30 01:49:12;;;;;;;43.28;22.85;;;;;;;0.92;91.80;100249.88;10441083;28;20040;-75
2023/01/30 01:54:22;;;;;;;54.58;25.30;;;;;;;1.13;90.91;100237.50;10429729;28;20416;-78
2023/01/30 01:59:30;;;;;;;65.93;28.42;;;;;;;1.10;91.49;100256.13;10444081;28;20045;-75
2023/01/30 02:09:57;;;;;;;59.20;23.03;;;;;;;1.35;90.74;100235.63;10433424;28;20072;-77
2023/01/30 02:15:01;;;;;;;60.70;27.52;;;;;;;1.37;91.69;100230.25;10437851;28;20075;-77
2023/01/30 02:20:15;;;;;;;64.53;27.80;;;;;;;1.61;90.17;100205.28;10419683;28;20416;-77
2023/01/30 02:25:47;;;;;;;65.78;28.42;;;;;;;1.23;93.16;100188.53;10420735;28;20953;-77
2023/01/30 02:31:13;;;;;;;52.20;24.15;;;;;;;1.45;92.56;100188.41;10416776;28;20049;-77
2023/01/30 02:36:27;;;;;;;61.40;27.25;;;;;;;1.64;93.25;100176.00;10465792;28;20110;-77
2023/01/30 02:41:36;;;;;;;55.58;26.23;;;;;;;1.48;93.76;100137.94;10446710;28;20045;-77
2023/01/30 02:46:53;;;;;;;64.03;28.83;;;;;;;1.72;94.02;100139.44;10432907;28;20061;-77
2023/01/30 02:51:59;;;;;;;44.38;20.48;;;;;;;1.64;94.00;100138.09;10425391;28;20412;-76
2023/01/30 02:57:02;;;;;;;53.70;26.35;;;;;;;1.61;94.90;100132.94;10438857;28;20135;-77
2023/01/30 03:02:22;;;;;;;71.10;34.03;;;;;;;1.83;95.38;100111.56;10429798;28;20080;-75
2023/01/30 03:07:35;;;;;;;65.95;30.00;;;;;;;2.15;92.18;100094.09;10417133;28;20531;-75
2023/01/30 03:12:41;;;;;;;;;;;;;;;1.71;94.83;100087.41;10433634;28;20037;-76
2023/01/30 03:17:48;;;;;;;68.65;29.75;;;;;;;1.95;96.43;100093.28;10440912;28;19956;-76
2023/01/30 03:22:53;;;;;;;55.13;25.23;;;;;;;1.83;96.11;100079.78;10447061;28;20045;-76
2023/01/30 03:27:57;;;;;;;57.40;25.15;;;;;;;1.79;96.41;100068.50;10442058;28;20099;-76
2023/01/30 03:33:01;;;;;;;48.50;21.23;;;;;;;2.06;95.03;100057.47;10440946;28;20060;-76
2023/01/30 03:38:04;;;;;;;51.65;24.10;;;;;;;1.93;96.22;100079.25;10435269;28;20052;-75
2023/01/30 03:43:07;;;;;;;49.05;23.60;;;;;;;1.95;97.10;100077.41;10434975;28;20053;-75
2023/01/30 03:48:13;;;;;;;61.28;25.95;;;;;;;2.22;95.86;100052.22;10418600;28;20038;-76
2023/01/30 03:53:16;;;;;;;40.00;19.92;;;;;;;1.91;97.74;100041.38;10431768;28;20529;-77
2023/01/30 03:58:19;;;;;;;43.92;19.38;;;;;;;2.23;95.38;100033.59;10428719;28;20045;-77
2023/01/30 04:03:23;;;;;;;37.95;18.95;;;;;;;2.31;94.91;100031.41;10432790;28;20083;-77
2023/01/30 04:08:30;;;;;;;26.35;13.10;;;;;;;2.21;96.24;100024.00;10421318;28;20096;-76
2023/01/30 04:13:33;;;;;;;22.00;12.45;;;;;;;2.19;95.76;100021.41;10436115;28;20132;-78
2023/01/30 04:18:37;;;;;;;35.75;17.48;;;;;;;2.44;95.39;100013.06;10436534;28;20072;-78
2023/01/30 04:23:47;;;;;;;38.55;17.92;;;;;;;2.12;96.21;100022.69;10425343;28;20416;-78
2023/01/30 04:28:49;;;;;;;47.17;22.80;;;;;;;2.23;97.83;99999.13;10418107;28;20046;-77
2023/01/30 04:33:54;;;;;;;44.33;22.38;;;;;;;2.27;96.61;100016.56;10431868;28;20080;-78
2023/01/30 04:38:58;;;;;;;42.75;20.77;;;;;;;2.63;95.36;100012.94;10439607;28;20566;-79
2023/01/30 04:44:02;;;;;;;53.63;27.05;;;;;;;2.49;97.19;100008.34;10463131;28;20049;-78
2023/01/30 04:49:06;;;;;;;33.40;16.52;;;;;;;2.42;97.52;100011.44;10453930;28;20052;-78
2023/01/30 04:54:10;;;;;;;52.30;26.00;;;;;;;2.75;98.52;100003.47;10436607;28;20049;-78
2023/01/30 04:59:12;;;;;;;35.38;18.50;;;;;;;2.61;97.65;100013.03;10450473;28;20037;-79
2023/01/30 05:04:21;;;;;;;38.67;17.65;;;;;;;2.68;97.61;99986.19;10456643;28;20049;-78
2023/01/30 05:09:24;;;;;;;46.15;22.73;;;;;;;2.86;97.39;99979.88;10453014;28;20037;-79
2023/01/30 05:14:27;;;;;;;41.20;22.30;;;;;;;2.96;97.46;99975.78;10454514;28;20072;-79
2023/01/30 05:19:31;;;;;;;32.00;17.08;;;;;;;2.88;97.13;99974.47;10454396;28;20049;-79
2023/01/30 05:24:35;;;;;;;46.92;21.70;;;;;;;3.34;96.30;99969.22;10438115;28;20072;-79
2023/01/30 05:29:38;;;;;;;22.88;13.45;;;;;;;3.07;98.40;99985.75;10443554;28;20042;-78
2023/01/30 05:34:42;;;;;;;32.92;17.17;;;;;;;2.99;97.53;99975.59;10463113;28;20045;-78
2023/01/30 05:39:45;;;;;;;35.47;18.25;;;;;;;3.10;98.22;99974.13;10440425;28;20071;-78
2023/01/30 05:44:48;;;;;;;34.08;18.38;;;;;;;3.29;97.09;100003.97;10440988;28;20492;-78
2023/01/30 05:49:52;;;;;;;37.50;19.23;;;;;;;3.48;96.71;99991.38;10467234;28;20037;-79
2023/01/30 05:54:55;;;;;;;28.95;16.25;;;;;;;3.14;98.39;100003.06;10472201;28;20045;-80
2023/01/30 05:59:58;;;;;;;27.98;15.57;;;;;;;3.35;97.98;100008.13;10469194;28;20045;-78
2023/01/30 06:05:02;;;;;;;25.48;14.88;;;;;;;3.34;97.99;100009.03;10466614;28;20041;-81
2023/01/30 06:10:06;;;;;;;25.80;13.60;;;;;;;3.46;97.62;100016.31;10463351;28;20041;-80
2023/01/30 06:15:10;;;;;;;26.42;15.60;;;;;;;3.44;97.06;99997.81;10449404;28;20117;-80
2023/01/30 06:20:14;;;;;;;19.23;9.40;;;;;;;3.75;93.77;100001.31;10452328;28;20041;-80
2023/01/30 06:25:17;;;;;;;25.73;13.68;;;;;;;3.65;94.59;100000.19;10446856;28;20048;-81
2023/01/30 06:30:21;;;;;;;25.67;14.88;;;;;;;3.66;95.08;99996.56;10451407;28;20065;-81
2023/01/30 06:35:25;;;;;;;22.17;12.65;;;;;;;3.45;95.61;100007.47;10455446;28;20076;-81
2023/01/30 06:40:28;;;;;;;20.80;9.35;;;;;;;3.26;96.63;99997.06;10434907;28;20105;-79
2023/01/30 06:45:31;;;;;;;17.55;9.90;;;;;;;3.38;95.60;100014.09;10441806;28;20060;-79
2023/01/30 06:50:36;;;;;;;26.05;12.77;;;;;;;3.74;93.63;100012.91;10463814;28;20105;-79
2023/01/30 06:55:38;;;;;;;25.38;13.60;;;;;;;3.70;94.22;100017.56;10464822;28;20052;-80
2023/01/30 07:00:42;;;;;;;18.73;10.15;;;;;;;3.24;96.58;100022.00;10459636;28;20036;-79
2023/01/30 07:05:47;;;;;;;23.95;13.63;;;;;;;3.92;93.59;100027.78;10459808;28;20107;-79
2023/01/30 07:10:50;;;;;;;21.95;10.60;;;;;;;3.60;94.36;100021.69;10472005;28;20056;-80
2023/01/30 07:15:53;;;;;;;19.38;11.20;;;;;;;3.52;95.35;100015.13;10471579;28;20033;-79
2023/01/30 07:20:57;;;;;;;21.33;9.55;;;;;;;3.81;93.68;100011.59;10475793;28;20056;-78
2023/01/30 07:26:03;;;;;;;24.48;8.40;;;;;;;3.90;92.38;100019.03;10459837;28;20076;-80
2023/01/30 07:31:06;;;;;;;15.10;6.20;;;;;;;3.88;89.87;100031.56;10433219;28;20041;-78
2023/01/30 07:36:10;;;;;;;18.02;4.10;;;;;;;3.87;87.72;100013.91;10454055;28;20044;-77
2023/01/30 07:41:13;;;;;;;15.13;4.38;;;;;;;3.74;87.45;100036.81;10460474;28;20048;-79
2023/01/30 07:46:16;;;;;;;18.77;4.90;;;;;;;3.89;87.13;100033.25;10453160;28;20420;-78
2023/01/30 07:51:20;;;;;;;17.48;4.03;;;;;;;4.06;86.46;100023.44;10442151;28;20037;-78
2023/01/30 07:56:23;;;;;;;26.58;4.50;;;;;;;3.62;87.32;100035.75;10441489;28;20053;-77
2023/01/30 08:01:26;;;;;;;18.02;3.63;;;;;;;3.79;84.79;100028.59;10436295;28;20075;-78
2023/01/30 08:06:31;;;;;;;14.25;2.28;;;;;;;3.82;83.69;100055.84;10440040;28;20079;-77
2023/01/30 08:11:34;;;;;;;12.15;1.70;;;;;;;3.84;80.31;100045.09;10438711;28;20055;-77
2023/01/30 08:16:37;;;;;;;13.55;2.47;;;;;;;3.97;78.86;100038.13;10422807;28;20455;-78
2023/01/30 08:21:42;;;;;;;7.82;2.25;;;;;;;4.07;77.23;100041.09;10424839;28;20041;-78
2023/01/30 08:26:44;;;;;;;9.52;2.15;;;;;;;4.39;78.16;100039.19;10445496;28;20036;-77
2023/01/30 08:31:47;;;;;;;15.27;2.50;;;;;;;4.30;77.89;100050.34;10431902;28;20049;-78
2023/01/30 08:36:52;;;;;;;9.70;2.10;;;;;;;4.14;77.53;100051.28;10426034;28;20055;-78
2023/01/30 08:41:55;;;;;;;17.30;2.95;;;;;;;3.88;78.51;100066.09;10440604;28;20084;-78
2023/01/30 08:46:57;;;;;;;20.27;2.78;;;;;;;3.96;77.65;100049.72;10455398;28;20051;-78
2023/01/30 08:52:01;;;;;;;15.48;3.28;;;;;;;3.89;77.26;100074.91;10460375;28;20119;-78
2023/01/30 08:57:44;;;;;;;16.20;2.47;;;;;;;4.15;76.65;100063.63;10438453;28;20044;-79
2023/01/30 09:02:46;;;;;;;9.00;2.43;;;;;;;3.79;75.52;100071.97;10441226;28;20146;-78
2023/01/30 09:07:51;;;;;;;19.45;3.28;;;;;;;4.03;75.24;100055.50;10461330;28;20170;-78
2023/01/30 09:12:54;;;;;;;19.67;3.08;;;;;;;3.85;74.92;100060.13;10458801;28;20131;-78
2023/01/30 09:17:56;;;;;;;15.15;2.38;;;;;;;3.86;73.43;100053.84;10452859;28;20071;-78
2023/01/30 09:23:01;;;;;;;13.93;2.78;;;;;;;4.34;74.56;100066.03;10464090;28;20112;-78
2023/01/30 09:28:04;;;;;;;15.13;2.53;;;;;;;4.33;72.56;100066.13;10460752;28;20193;-78
2023/01/30 09:33:07;;;;;;;18.58;3.22;;;;;;;4.04;73.46;100059.91;10455824;28;20070;-78
2023/01/30 09:38:11;;;;;;;13.40;3.08;;;;;;;4.25;72.35;100061.28;10453191;28;20045;-78
2023/01/30 09:43:29;;;;;;;15.25;3.63;;;;;;;4.89;71.52;100045.84;10453995;28;20052;-78
2023/01/30 09:48:39;;;;;;;23.50;2.75;;;;;;;5.49;71.76;100074.00;10420573;28;20213;-78
2023/01/30 09:54:03;;;;;;;17.42;2.97;;;;;;;4.76;72.08;100075.00;10442115;28;20048;-78
2023/01/30 09:59:07;;;;;;;16.95;2.97;;;;;;;4.32;72.86;100056.44;10426943;28;20064;-78
2023/01/30 10:04:18;;;;;;;19.92;4.30;;;;;;;4.76;72.72;100087.47;10455456;28;20036;-78
2023/01/30 10:09:33;;;;;;;13.75;2.47;;;;;;;4.33;73.10;100066.13;10454876;28;20089;-78
2023/01/30 10:14:55;;;;;;;18.08;2.47;;;;;;;4.67;72.18;100075.56;10448748;28;20064;-78
2023/01/30 10:20:11;;;;;;;20.13;3.05;;;;;;;4.79;72.05;100071.28;10449843;28;20044;-78
2023/01/30 10:25:26;;;;;;;16.00;4.00;;;;;;;4.30;74.24;100087.56;10455211;28;20044;-78
2023/01/30 10:30:29;;;;;;;17.33;3.85;;;;;;;4.16;77.54;100113.16;10457155;28;20045;-77
2023/01/30 10:35:36;;;;;;;20.25;4.25;;;;;;;3.93;77.24;100084.44;10439558;28;20123;-78
2023/01/30 10:40:44;;;;;;;27.48;4.72;;;;;;;3.67;76.99;100070.84;10422749;28;20202;-78
2023/01/30 10:45:55;;;;;;;13.90;2.00;;;;;;;3.83;77.63;100046.06;10451899;28;20055;-77
2023/01/30 10:51:04;;;;;;;26.02;3.65;;;;;;;3.77;80.09;100087.13;10455985;28;20177;-77
2023/01/30 10:56:18;;;;;;;19.40;3.50;;;;;;;3.65;80.22;100082.53;10445680;28;20044;-77
2023/01/30 11:01:24;;;;;;;29.42;4.20;;;;;;;3.64;79.71;100081.66;10435254;28;20523;-77
2023/01/30 11:06:28;;;;;;;19.73;3.42;;;;;;;3.82;78.03;100082.41;10432201;28;20410;-78
2023/01/30 11:11:42;;;;;;;23.23;2.90;;;;;;;4.39;74.58;100060.44;10431800;28;20086;-77
2023/01/30 11:16:48;;;;;;;13.43;3.20;;;;;;;4.37;72.57;100054.38;10420492;28;20053;-77
2023/01/30 11:21:53;;;;;;;18.98;2.33;;;;;;;4.98;70.63;100039.91;10416040;28;20423;-77
2023/01/30 11:27:11;;;;;;;11.30;3.30;;;;;;;4.73;70.06;100029.09;10417426;28;20053;-77
2023/01/30 11:32:23;;;;;;;18.27;3.17;;;;;;;4.59;70.92;100043.28;10435154;28;20187;-77
2023/01/30 11:37:31;;;;;;;15.57;3.50;;;;;;;5.24;69.07;100022.31;10427578;28;20136;-77
2023/01/30 11:42:36;;;;;;;18.17;3.05;;;;;;;5.46;67.75;100019.13;10424179;28;20060;-78
2023/01/30 11:47:46;;;;;;;24.98;3.70;;;;;;;6.05;66.15;100015.22;10447306;28;21235;-77
2023/01/30 11:53:03;;;;;;;34.05;3.80;;;;;;;4.95;69.28;100013.50;10440224;28;20048;-77
2023/01/30 11:58:09;;;;;;;9.25;2.05;;;;;;;4.90;69.19;99982.81;10425776;28;20052;-77
2023/01/30 12:03:16;;;;;;;18.90;3.47;;;;;;;4.83;70.01;100000.97;10420225;28;20057;-77
2023/01/30 12:08:25;;;;;;;18.92;3.80;;;;;;;4.52;68.72;100016.16;10431909;28;20086;-77
2023/01/30 12:13:46;;;;;;;15.68;3.97;;;;;;;4.78;68.09;100051.81;10441235;28;20076;-77
2023/01/30 12:18:56;;;;;;;17.25;3.08;;;;;;;5.27;65.38;100048.75;10451675;28;20131;-77
2023/01/30 12:24:09;;;;;;;13.15;3.65;;;;;;;5.88;62.45;99979.91;10457248;28;20110;-77
2023/01/30 12:29:23;;;;;;;15.73;2.67;;;;;;;4.84;67.37;100008.00;10444321;28;20054;-77
2023/01/30 12:34:26;;;;;;;20.33;3.67;;;;;;;4.32;72.00;100027.19;10417415;28;20766;-77
2023/01/30 12:39:41;;;;;;;19.30;3.42;;;;;;;3.41;92.17;100059.06;10432528;28;20056;-77
2023/01/30 12:45:01;;;;;;;18.17;3.03;;;;;;;2.86;93.39;100132.91;10455862;28;20550;-78
2023/01/30 12:50:23;;;;;;;13.77;1.77;;;;;;;2.96;89.01;100099.59;10445225;28;20040;-77
2023/01/30 12:55:36;;;;;;;9.35;1.60;;;;;;;2.35;89.94;100122.22;10462150;28;20080;-77
2023/01/30 13:00:53;;;;;;;7.75;1.08;;;;;;;3.06;91.02;100100.81;10428540;28;20157;-78
2023/01/30 13:06:08;;;;;;;6.97;1.08;;;;;;;3.84;83.89;100098.25;10433465;28;20057;-79
2023/01/30 13:11:28;;;;;;;6.00;1.17;;;;;;;4.31;79.28;100105.25;10452185;28;20052;-78
2023/01/30 13:16:42;;;;;;;12.38;1.55;;;;;;;4.42;80.04;100089.53;10459948;28;20055;-79
2023/01/30 13:21:54;;;;;;;14.68;2.97;;;;;;;4.36;78.85;100085.44;10452422;28;20156;-79
2023/01/30 13:27:02;;;;;;;14.35;1.80;;;;;;;4.90;76.79;100091.94;10453364;28;20059;-78
2023/01/30 13:32:14;;;;;;;9.25;1.58;;;;;;;5.04;75.83;100107.91;10461179;28;20048;-78
2023/01/30 13:37:19;;;;;;;12.98;2.20;;;;;;;4.36;76.59;100127.97;10459730;28;20665;-78
2023/01/30 13:42:31;;;;;;;11.00;1.77;;;;;;;4.49;76.20;100104.13;10457531;28;20052;-77
2023/01/30 13:47:46;;;;;;;15.55;3.97;;;;;;;4.67;75.75;100126.13;10438063;28;20048;-78
2023/01/30 13:52:56;;;;;;;8.82;1.92;;;;;;;4.66;73.35;100112.91;10450070;28;20506;-78
2023/01/30 13:58:10;;;;;;;12.23;2.25;;;;;;;4.89;71.41;100120.34;10431935;28;20241;-77
2023/01/30 14:03:30;;;;;;;10.05;2.70;;;;;;;5.03;69.66;100139.03;10454518;28;20055;-78
2023/01/30 14:08:38;;;;;;;12.70;2.20;;;;;;;4.54;70.66;100149.09;10441710;28;20399;-78
2023/01/30 14:13:52;;;;;;;8.88;1.83;;;;;;;4.60;69.89;100167.34;10442884;28;20091;-78
2023/01/30 14:18:56;;;;;;;7.30;1.30;;;;;;;4.74;69.13;100187.81;10452222;28;20675;-78
2023/01/30 14:24:01;;;;;;;12.57;2.15;;;;;;;4.36;70.97;100214.84;10457869;28;20044;-78
2023/01/30 14:29:04;;;;;;;16.42;2.70;;;;;;;4.72;71.59;100203.03;10457738;28;20045;-78
2023/01/30 14:34:46;;;;;;;15.90;2.90;;;;;;;4.87;72.28;100217.22;10443490;28;20233;-78
2023/01/30 14:39:54;;;;;;;14.27;2.13;;;;;;;4.94;71.97;100222.09;10446704;28;20052;-78
2023/01/30 14:45:05;;;;;;;7.43;1.65;;;;;;;4.90;71.34;100247.16;10452807;28;20201;-78
2023/01/30 14:50:18;;;;;;;18.45;2.85;;;;;;;4.91;72.24;100270.19;10448708;28;20423;-78
2023/01/30 14:55:28;;;;;;;12.85;2.28;;;;;;;5.15;71.02;100272.34;10457039;28;20616;-78
2023/01/30 15:00:34;;;;;;;12.20;2.97;;;;;;;4.62;71.53;100301.16;10457269;28;20143;-78
2023/01/30 15:05:43;;;;;;;10.77;1.98;;;;;;;4.79;71.79;100302.81;10454962;28;20041;-78
2023/01/30 15:11:03;;;;;;;8.20;2.40;;;;;;;4.72;70.35;100309.47;10435793;28;20045;-78
2023/01/30 15:16:16;;;;;;;23.55;2.33;;;;;;;4.73;70.58;100329.81;10444250;28;20049;-77
2023/01/30 15:21:36;;;;;;;9.60;2.25;;;;;;;4.60;69.78;100350.91;10426755;28;20044;-78
2023/01/30 15:26:51;;;;;;;13.60;2.58;;;;;;;4.55;70.02;100343.22;10462321;28;20052;-78
2023/01/30 15:31:55;;;;;;;7.70;1.92;;;;;;;4.82;69.27;100362.06;10455676;28;20052;-78
2023/01/30 15:36:58;;;;;;;15.40;2.70;;;;;;;4.56;69.57;100376.84;10455994;28;20128;-78
2023/01/30 15:42:07;;;;;;;11.95;1.80;;;;;;;4.81;69.38;100389.63;10451660;28;20059;-78
2023/01/30 15:47:22;;;;;;;26.20;3.08;;;;;;;4.73;69.48;100402.50;10431058;28;20068;-77
2023/01/30 15:52:34;;;;;;;15.88;2.28;;;;;;;4.68;69.64;100401.91;10432291;28;20052;-78
2023/01/30 15:57:40;;;;;;;14.00;2.67;;;;;;;4.90;69.19;100412.19;10444687;28;20123;-77
2023/01/30 16:02:43;;;;;;;17.00;3.08;;;;;;;4.98;69.71;100436.56;10445291;28;20067;-78
2023/01/30 16:07:47;;;;;;;15.38;2.15;;;;;;;4.87;69.89;100439.00;10454515;28;20139;-78
2023/01/30 16:12:55;;;;;;;15.77;2.38;;;;;;;4.33;70.50;100449.06;10455702;28;20056;-77
2023/01/30 16:18:01;;;;;;;17.38;3.38;;;;;;;4.69;69.36;100462.19;10455522;28;20044;-78
2023/01/30 16:23:20;;;;;;;17.13;2.28;;;;;;;4.77;69.11;100480.38;10454887;28;20454;-77
2023/01/30 16:28:27;;;;;;;18.55;3.65;;;;;;;5.05;69.14;100474.41;10446830;28;20048;-77
2023/01/30 16:33:34;;;;;;;17.98;2.72;;;;;;;4.98;68.63;100494.28;10449855;28;20131;-77
2023/01/30 16:38:43;;;;;;;28.85;3.22;;;;;;;4.78;69.53;100506.06;10443714;28;21193;-77
2023/01/30 16:43:47;;;;;;;20.52;2.88;;;;;;;4.36;70.16;100502.09;10449016;28;21228;-77
2023/01/30 16:48:50;;;;;;;12.77;2.22;;;;;;;4.48;70.39;100501.44;10456140;28;20044;-77
2023/01/30 16:53:58;;;;;;;29.98;4.10;;;;;;;4.78;69.92;100511.38;10454071;28;20048;-77
2023/01/30 16:59:04;;;;;;;28.48;4.30;;;;;;;4.70;70.51;100524.25;10417606;28;20037;-77
2023/01/30 17:04:17;;;;;;;20.88;3.42;;;;;;;4.81;70.19;100527.16;10445514;28;20060;-77
2023/01/30 17:09:50;;;;;;;21.35;2.85;;;;;;;4.60;71.07;100547.81;10421940;28;20543;-77
2023/01/30 17:15:26;;;;;;;30.33;4.47;;;;;;;4.40;71.13;100544.41;10372142;28;20041;-77
2023/01/30 17:20:37;;;;;;;22.55;5.10;;;;;;;4.81;69.12;100572.41;10439234;28;20127;-77
2023/01/30 17:25:43;;;;;;;16.50;3.50;;;;;;;4.96;68.95;100576.91;10434438;28;20775;-77
2023/01/30 17:30:47;;;;;;;21.63;3.78;;;;;;;4.87;70.23;100605.84;10455736;28;20549;-77
2023/01/30 17:35:50;;;;;;;29.15;4.28;;;;;;;4.81;69.65;100607.03;10448063;28;20058;-77
2023/01/30 17:40:53;;;;;;;17.50;3.50;;;;;;;4.27;69.67;100599.19;10415945;28;20055;-77
2023/01/30 17:45:57;;;;;;;26.42;4.97;;;;;;;4.80;69.74;100619.47;10434933;28;20052;-77
2023/01/30 17:51:00;;;;;;;25.23;4.40;;;;;;;4.62;70.42;100631.94;10425613;28;20434;-77
2023/01/30 17:56:03;;;;;;;19.75;3.13;;;;;;;5.04;68.59;100641.28;10449217;28;20661;-77
2023/01/30 18:01:07;;;;;;;16.27;2.67;;;;;;;4.79;69.50;100636.38;10455860;28;20056;-77
2023/01/30 18:06:12;;;;;;;26.08;3.95;;;;;;;4.56;71.50;100648.22;10453012;28;20051;-77
2023/01/30 18:11:16;;;;;;;19.52;3.92;;;;;;;4.52;70.36;100653.78;10451777;28;20056;-77
2023/01/30 18:16:24;;;;;;;27.33;4.55;;;;;;;4.51;72.01;100676.88;10476157;28;20055;-76
2023/01/30 18:21:27;;;;;;;21.45;3.83;;;;;;;4.47;72.88;100680.63;10463363;28;20071;-76
2023/01/30 18:26:30;;;;;;;25.42;3.88;;;;;;;4.20;72.27;100674.03;10452478;28;20195;-77
2023/01/30 18:31:35;;;;;;;19.60;2.97;;;;;;;3.86;73.35;100703.13;10445811;28;20049;-76
2023/01/30 18:36:38;;;;;;;18.30;3.22;;;;;;;4.21;72.87;100707.66;10455697;28;20627;-77
2023/01/30 18:41:41;;;;;;;25.42;4.60;;;;;;;4.10;72.81;100702.88;10456077;28;20136;-77
2023/01/30 18:46:45;;;;;;;31.55;6.30;;;;;;;3.81;74.13;100705.13;10439182;28;20045;-77
2023/01/30 18:51:48;;;;;;;21.48;2.83;;;;;;;3.97;73.64;100720.34;10432417;28;20075;-77
2023/01/30 18:56:51;;;;;;;22.65;3.42;;;;;;;4.24;74.58;100724.34;10458512;28;20075;-77
2023/01/30 19:01:55;;;;;;;21.02;3.92;;;;;;;3.81;76.34;100736.16;10450151;28;20056;-77
2023/01/30 19:06:58;;;;;;;23.73;4.35;;;;;;;3.91;76.44;100748.09;10436978;28;20052;-76
2023/01/30 19:17:18;;;;;;;30.38;4.35;;;;;;;3.59;76.54;100773.50;10429894;28;20055;-77
2023/01/30 19:22:21;;;;;;;20.17;3.47;;;;;;;4.08;75.05;100781.84;10438663;28;20045;-77
2023/01/30 19:27:24;;;;;;;24.52;3.60;;;;;;;3.99;75.24;100772.53;10440291;28;20516;-76
2023/01/30 19:32:29;;;;;;;30.75;5.18;;;;;;;3.85;74.83;100782.94;10450764;28;20067;-77
2023/01/30 19:37:31;;;;;;;24.00;3.50;;;;;;;3.76;75.42;100786.91;10451411;28;20576;-77
2023/01/30 19:42:34;;;;;;;21.55;3.85;;;;;;;3.71;74.80;100797.72;10462516;28;20040;-75
2023/01/30 19:47:41;;;;;;;17.77;2.67;;;;;;;3.82;73.53;100797.22;10460068;28;20767;-77
2023/01/30 19:52:44;;;;;;;35.40;4.65;;;;;;;4.34;72.81;100792.09;10460134;28;20045;-77
2023/01/30 19:57:47;;;;;;;20.77;3.75;;;;;;;3.94;73.66;100796.66;10451917;28;20581;-76
2023/01/30 20:02:52;;;;;;;11.80;2.83;;;;;;;3.63;74.39;100793.69;10458097;28;20045;-77
2023/01/30 20:07:54;;;;;;;25.20;3.92;;;;;;;4.01;73.91;100810.53;10446751;28;20052;-77
2023/01/30 20:12:57;;;;;;;24.58;3.45;;;;;;;3.72;73.35;100815.38;10458464;28;20056;-79
2023/01/30 20:18:01;;;;;;;19.08;3.95;;;;;;;3.98;73.38;100833.72;10439973;28;20057;-76
2023/01/30 20:23:04;;;;;;;20.00;3.53;;;;;;;3.59;74.08;100862.03;10436805;28;20525;-77
2023/01/30 20:28:08;;;;;;;18.25;3.28;;;;;;;3.67;73.79;100864.34;10422977;28;20531;-77
2023/01/30 20:33:12;;;;;;;19.33;3.42;;;;;;;3.64;74.19;100865.34;10423818;28;20131;-78
2023/01/30 20:38:15;;;;;;;26.85;3.95;;;;;;;3.86;73.88;100886.50;10425978;28;20086;-77
2023/01/30 20:43:18;;;;;;;21.08;3.83;;;;;;;4.12;73.03;100900.44;10457922;28;20055;-79
2023/01/30 20:48:22;;;;;;;26.83;3.25;;;;;;;4.11;71.54;100901.34;10451756;28;20595;-77
2023/01/30 20:53:25;;;;;;;20.00;3.85;;;;;;;3.78;72.56;100920.53;10455122;28;20446;-77
2023/01/30 20:58:29;;;;;;;25.02;3.40;;;;;;;3.84;71.97;100900.78;10445304;28;20040;-77
2023/01/30 21:03:33;;;;;;;28.73;4.43;;;;;;;3.23;73.88;100891.91;10440387;28;20041;-77
2023/01/30 21:08:37;;;;;;;28.00;4.82;;;;;;;3.15;74.23;100904.66;10459477;28;20048;-77
2023/01/30 21:13:41;;;;;;;24.65;3.83;;;;;;;3.11;75.51;100918.13;10460439;28;20059;-77
2023/01/30 21:18:48;;;;;;;23.45;3.20;;;;;;;3.41;74.26;100937.22;10437986;28;20454;-78
2023/01/30 21:23:53;;;;;;;26.95;3.70;;;;;;;3.50;74.46;100920.88;10457403;28;20053;-78
2023/01/30 21:28:57;;;;;;;23.98;3.78;;;;;;;3.39;74.75;100937.28;10444998;28;20562;-77
2023/01/30 21:34:02;;;;;;;18.27;3.63;;;;;;;3.32;74.24;100930.50;10423417;28;20052;-76
2023/01/30 21:44:27;;;;;;;25.27;3.65;;;;;;;3.20;73.91;100950.47;10457378;28;20064;-76
2023/01/30 21:49:32;;;;;;;12.50;2.03;;;;;;;2.83;75.71;100959.06;10476172;28;20048;-77
2023/01/30 21:54:35;;;;;;;29.45;3.65;;;;;;;2.91;75.76;100969.34;10476417;28;20103;-77
2023/01/30 21:59:38;;;;;;;18.20;3.42;;;;;;;3.11;74.70;100971.22;10470968;28;20112;-76
2023/01/30 22:04:42;;;;;;;17.65;2.97;;;;;;;3.30;74.52;100969.53;10485770;28;20550;-76
2023/01/30 22:09:47;;;;;;;31.35;4.22;;;;;;;3.25;74.75;100974.19;10487699;28;20063;-77
2023/01/30 22:14:50;;;;;;;30.95;3.10;;;;;;;2.97;75.37;100975.28;10503662;28;20068;-76
2023/01/30 22:19:54;;;;;;;23.50;4.63;;;;;;;3.00;75.77;100966.34;10487121;28;20504;-76
2023/01/30 22:24:58;;;;;;;16.95;3.33;;;;;;;2.94;75.79;100972.78;10453805;28;20504;-76
2023/01/30 22:30:01;;;;;;;13.40;2.65;;;;;;;3.00;76.15;100967.22;10466835;28;20060;-77
2023/01/30 22:35:06;;;;;;;29.77;4.68;;;;;;;3.17;76.46;100966.53;10483631;28;20075;-76
2023/01/30 22:40:10;;;;;;;23.73;3.92;;;;;;;3.21;76.87;100969.91;10491463;28;20076;-77
2023/01/30 22:45:13;;;;;;;20.98;2.92;;;;;;;3.29;76.45;100965.13;10485877;28;20049;-78
2023/01/30 22:50:17;;;;;;;23.67;3.28;;;;;;;3.11;76.60;100958.81;10473263;28;20052;-77
2023/01/30 22:55:20;;;;;;;29.73;3.70;;;;;;;3.02;77.46;100967.16;10464653;28;20044;-76
2023/01/30 23:00:24;;;;;;;30.38;3.92;;;;;;;3.32;77.60;100969.47;10454925;28;20099;-77
2023/01/30 23:05:28;;;;;;;23.92;3.03;;;;;;;3.24;77.64;100954.72;10459457;28;20060;-76
2023/01/30 23:10:30;;;;;;;17.02;3.03;;;;;;;2.99;82.42;100973.47;10468913;28;20052;-77
2023/01/30 23:15:35;;;;;;;18.88;3.53;;;;;;;3.13;81.74;100967.59;10478486;28;20064;-77
2023/01/30 23:20:39;;;;;;;16.10;2.97;;;;;;;3.30;82.01;100960.72;10490457;28;20069;-77
2023/01/30 23:25:42;;;;;;;29.13;5.05;;;;;;;2.78;82.30;100961.88;10492253;28;20094;-77
2023/01/30 23:30:45;;;;;;;20.92;3.05;;;;;;;2.35;82.21;100957.34;10482309;28;20103;-77
2023/01/30 23:35:49;;;;;;;14.18;2.40;;;;;;;2.32;82.04;100966.28;10457766;28;20036;-77
2023/01/30 23:40:52;;;;;;;26.27;5.10;;;;;;;2.69;80.66;100964.03;10465293;28;20139;-77
2023/01/30 23:45:56;;;;;;;22.30;4.45;;;;;;;2.48;81.40;100971.00;10485295;28;20147;-77
2023/01/30 23:51:02;;;;;;;21.85;2.95;;;;;;;2.68;79.94;100979.09;10473014;28;20071;-77